If you wish to contribute or participate in the discussions about articles you are invited to join SKYbrary as a registered user

 Actions

Anaktuvuk Pass Airport

From SKYbrary Wiki

PAKP
Airport
ICAO: PAKP – IATA: AKP
Summary
Name Anaktuvuk Pass Airport
Region North America
Territory Alaska US.gif
Location Anaktuvuk Pass, Alaska
Serving Anaktuvuk Pass
Elevation 640.69 m <br />2,102 ft <br />2,102 ft640.69 m <br />
Type medium airport
Coordinates 68° 8' 0.96" N, 151° 44' 34.80" W
Runways
Designator Length Width Surface ROPS
2/20 1463 m4,799.869 ft <br /> 30 m98.425 ft <br /> GRAVEL-G /


METAR
Observation PAKP 181656Z AUTO 18004KT 10SM CLR M02/M07 A3042 RMK AO2 SLP352 T10221072 FZRANO
Station Anaktuvuk Pass, Anaktuvuk Pass Airport
Date/Time 18 April 2021 16:56:00
Wind direction 180°
Wind speed 04 kts
Lowest cloud amount n/a
Temperature
Dew point
Humidity 68%
QNH hPa
Weather condition n/a

Maps

Terrain

Loading map...

Airport Layout

Loading map...


Accidents & Serious Incidents at or in vicinity of PAKP

None on SKYbrary